Time;durP1;ratioP1;P1;durP2;ratioP2;P2;SDS_P1;SDS_P2;PMS_P1;PMS_P2;Temp;Humidity;BMP_temperature;BMP_pressure;BME280_temperature;BME280_humidity;BME280_pressure;Samples;Min_cycle;Max_cycle;Signal;HPM_P1;HPM_P2
2024/01/27 00:02:04;;;;;;;7.75;7.13;;;22.20;57.00;;;;;;5074276;28;20104;-56
2024/01/27 00:04:31;;;;;;;4.35;1.92;;;22.10;57.00;;;;;;5075548;28;20623;-56
2024/01/27 00:06:57;;;;;;;5.50;1.00;;;22.00;56.90;;;;;;5072606;28;20077;-55
2024/01/27 00:09:24;;;;;;;2.97;0.57;;;22.00;55.90;;;;;;5071100;28;20560;-57
2024/01/27 00:11:50;;;;;;;4.60;0.52;;;22.00;56.50;;;;;;5071590;28;20081;-55
2024/01/27 00:14:17;;;;;;;3.92;0.68;;;22.00;56.20;;;;;;5072237;28;20076;-58
2024/01/27 00:16:44;;;;;;;8.23;1.00;;;22.00;55.60;;;;;;5069763;28;20528;-49
2024/01/27 00:19:10;;;;;;;7.90;1.40;;;21.90;56.00;;;;;;5055627;28;20081;-56
2024/01/27 00:21:36;;;;;;;11.45;1.90;;;21.80;57.00;;;;;;5073644;28;20163;-54
2024/01/27 00:24:03;;;;;;;10.20;1.58;;;21.60;56.90;;;;;;5072337;28;20591;-51
2024/01/27 00:26:30;;;;;;;10.50;1.50;;;21.50;57.10;;;;;;5057441;28;20482;-60
2024/01/27 00:28:56;;;;;;;4.80;0.93;;;21.60;57.00;;;;;;5071458;28;20088;-54
2024/01/27 00:31:23;;;;;;;3.58;1.33;;;21.50;57.00;;;;;;5072771;28;20564;-43
2024/01/27 00:33:49;;;;;;;9.32;2.08;;;21.40;57.40;;;;;;5073392;28;20545;-52
2024/01/27 00:36:16;;;;;;;15.02;3.10;;;21.30;57.50;;;;;;5057693;28;20131;-52
2024/01/27 00:38:42;;;;;;;10.23;3.60;;;21.10;58.40;;;;;;5072662;28;20080;-47
2024/01/27 00:41:12;;;;;;;7.53;2.53;;;20.90;58.70;;;;;;5074870;28;20068;-44
2024/01/27 00:43:39;;;;;;;10.80;6.05;;;20.70;58.50;;;;;;5073321;28;20502;-47
2024/01/27 00:46:05;;;;;;;24.13;13.32;;;20.60;59.80;;;;;;5071753;28;20072;-45
2024/01/27 00:48:32;;;;;;;26.02;13.13;;;20.50;60.60;;;;;;5073950;28;20533;-54
2024/01/27 00:50:58;;;;;;;13.57;6.20;;;20.30;61.10;;;;;;5074688;28;20453;-53
2024/01/27 00:53:28;;;;;;;13.02;5.50;;;20.10;61.80;;;;;;5072465;28;20495;-46
2024/01/27 00:55:54;;;;;;;12.02;5.82;;;20.00;61.80;;;;;;5075056;28;20130;-50
2024/01/27 00:58:21;;;;;;;13.05;3.35;;;19.80;61.70;;;;;;5072978;28;20072;-50
2024/01/27 01:00:47;;;;;;;11.45;4.22;;;19.70;61.80;;;;;;5070768;28;20076;-45
2024/01/27 01:03:14;;;;;;;22.55;9.27;;;19.60;63.10;;;;;;5072490;28;20146;-49
2024/01/27 01:05:40;;;;;;;27.77;11.27;;;19.50;64.30;;;;;;5068602;28;20077;-46
2024/01/27 01:08:06;;;;;;;27.02;10.70;;;19.40;65.20;;;;;;5071017;28;20084;-46
2024/01/27 01:10:33;;;;;;;24.05;7.53;;;19.30;66.20;;;;;;5073162;28;20088;-47
2024/01/27 01:13:00;;;;;;;15.50;6.00;;;19.20;65.90;;;;;;5070303;28;20130;-47
2024/01/27 01:15:26;;;;;;;23.02;5.10;;;19.10;66.30;;;;;;5073957;28;20076;-49
2024/01/27 01:17:52;;;;;;;51.28;5.40;;;19.00;68.20;;;;;;5075459;28;20073;-44
2024/01/27 01:20:19;;;;;;;48.38;5.70;;;18.80;70.10;;;;;;5071065;28;20141;-48
2024/01/27 01:22:45;;;;;;;52.55;6.80;;;18.70;71.00;;;;;;5069728;28;20100;-53
2024/01/27 01:25:12;;;;;;;54.53;6.32;;;18.50;71.30;;;;;;5072205;28;20088;-49
2024/01/27 01:27:38;;;;;;;47.38;6.97;;;18.40;72.50;;;;;;5074895;28;20552;-47
2024/01/27 01:30:05;;;;;;;59.90;7.03;;;18.20;73.40;;;;;;5074335;28;20142;-43
2024/01/27 01:32:33;;;;;;;39.05;6.05;;;18.00;74.70;;;;;;5071695;28;20072;-50
2024/01/27 01:34:59;;;;;;;37.08;5.80;;;17.90;75.60;;;;;;5071039;28;20069;-43
2024/01/27 01:37:25;;;;;;;34.67;5.18;;;17.80;77.10;;;;;;5078381;28;20073;-45
2024/01/27 01:39:52;;;;;;;25.75;5.45;;;18.30;79.40;;;;;;5077366;28;20095;-41
2024/01/27 01:42:20;;;;;;;26.88;9.40;;;19.20;75.90;;;;;;5077007;28;20130;-42
2024/01/27 01:44:46;;;;;;;25.08;4.95;;;19.70;75.60;;;;;;5076774;28;20448;-44
2024/01/27 01:47:13;;;;;;;23.23;5.05;;;19.80;73.90;;;;;;5073969;28;20079;-42
2024/01/27 01:49:40;;;;;;;26.75;4.93;;;19.80;73.10;;;;;;5076851;28;20080;-44
2024/01/27 01:52:07;;;;;;;39.80;5.20;;;19.90;75.20;;;;;;5077773;28;20227;-41
2024/01/27 01:54:34;;;;;;;23.63;5.00;;;19.80;75.50;;;;;;5075744;28;20117;-42
2024/01/27 01:57:02;;;;;;;32.95;5.95;;;19.80;76.20;;;;;;5057235;28;20536;-42
2024/01/27 01:59:28;;;;;;;29.02;5.88;;;19.90;76.10;;;;;;5074592;28;20425;-42
2024/01/27 02:01:55;;;;;;;37.50;7.47;;;19.60;76.80;;;;;;5079243;28;20471;-46
2024/01/27 02:04:21;;;;;;;29.05;8.25;;;19.30;77.50;;;;;;5075073;28;20104;-52
2024/01/27 02:06:48;;;;;;;44.33;11.20;;;19.40;80.80;;;;;;5078747;28;20148;-46
2024/01/27 02:09:15;;;;;;;52.30;10.38;;;19.60;79.50;;;;;;5074221;28;20073;-60
2024/01/27 02:11:42;;;;;;;48.67;7.90;;;19.50;77.90;;;;;;5074261;28;20080;-45
2024/01/27 02:14:08;;;;;;;45.70;6.80;;;19.30;78.70;;;;;;5074950;28;20080;-44
2024/01/27 02:16:35;;;;;;;41.05;7.43;;;19.10;76.30;;;;;;5074076;28;20069;-54
2024/01/27 02:19:01;;;;;;;40.95;7.15;;;19.10;79.00;;;;;;5075639;28;20546;-43
2024/01/27 02:21:28;;;;;;;49.67;7.82;;;19.00;80.20;;;;;;5074659;28;20112;-44
2024/01/27 02:23:54;;;;;;;33.38;7.15;;;18.60;82.80;;;;;;5075089;28;20156;-44
2024/01/27 02:26:21;;;;;;;37.15;8.80;;;18.60;84.60;;;;;;5070307;28;20114;-42
2024/01/27 02:28:47;;;;;;;41.40;9.57;;;18.70;83.20;;;;;;5076200;28;20078;-44
2024/01/27 02:31:14;;;;;;;43.03;9.68;;;18.60;82.20;;;;;;5077229;28;20203;-43
2024/01/27 02:33:41;;;;;;;49.58;9.82;;;18.60;82.80;;;;;;5078875;28;20072;-43
2024/01/27 02:36:07;;;;;;;52.30;9.82;;;18.20;83.40;;;;;;5075245;28;20115;-40
2024/01/27 02:38:34;;;;;;;51.40;11.35;;;18.20;83.70;;;;;;5056615;28;20549;-43
2024/01/27 02:41:00;;;;;;;73.65;12.95;;;18.10;82.20;;;;;;5075582;28;20452;-58
2024/01/27 02:43:27;;;;;;;60.83;13.13;;;18.10;85.20;;;;;;5071829;28;20101;-42
2024/01/27 02:45:53;;;;;;;82.00;13.23;;;17.90;85.10;;;;;;5074572;28;20080;-48
2024/01/27 02:48:19;;;;;;;71.95;13.93;;;17.90;85.30;;;;;;5056267;28;20073;-52
2024/01/27 02:50:46;;;;;;;83.88;14.15;;;17.80;86.60;;;;;;5071525;28;21235;-54
2024/01/27 02:53:13;;;;;;;74.95;16.08;;;17.60;86.40;;;;;;5052978;28;20156;-42
2024/01/27 02:55:40;;;;;;;81.38;15.02;;;17.60;87.50;;;;;;5053846;28;20087;-44
2024/01/27 02:58:06;;;;;;;94.47;15.38;;;17.70;87.30;;;;;;5050871;28;20085;-42
2024/01/27 03:00:32;;;;;;;74.28;15.13;;;17.70;88.00;;;;;;5056494;28;20525;-42
2024/01/27 03:02:59;;;;;;;88.13;16.17;;;17.60;87.90;;;;;;5054387;28;20112;-44
2024/01/27 03:05:25;;;;;;;67.20;14.32;;;17.30;89.80;;;;;;5050885;28;20074;-42
2024/01/27 03:07:52;;;;;;;72.15;12.75;;;17.30;89.40;;;;;;5057283;28;20528;-44
2024/01/27 03:10:18;;;;;;;105.20;15.25;;;17.20;89.60;;;;;;5051694;28;20073;-61
2024/01/27 03:12:45;;;;;;;76.65;14.00;;;17.10;90.80;;;;;;5055265;28;20084;-42
2024/01/27 03:15:11;;;;;;;57.45;11.88;;;17.00;90.90;;;;;;5050448;28;20130;-57
2024/01/27 03:17:38;;;;;;;66.38;12.75;;;16.80;91.30;;;;;;5055457;28;20076;-58
2024/01/27 03:20:05;;;;;;;81.40;13.40;;;16.70;91.10;;;;;;5048766;28;20097;-47
2024/01/27 03:22:31;;;;;;;71.93;11.70;;;16.60;91.20;;;;;;5054304;28;20101;-42
2024/01/27 03:24:58;;;;;;;67.63;11.98;;;16.80;91.10;;;;;;5051977;28;20121;-43
2024/01/27 03:27:24;;;;;;;64.35;12.05;;;16.80;91.20;;;;;;5052043;28;20658;-59
2024/01/27 03:29:50;;;;;;;81.97;13.20;;;16.80;91.20;;;;;;5053106;28;20073;-42
2024/01/27 03:32:17;;;;;;;77.00;15.25;;;16.70;91.50;;;;;;5049060;28;20142;-46
2024/01/27 03:34:47;;;;;;;65.25;14.52;;;16.70;90.70;;;;;;5053794;28;20583;-43
2024/01/27 03:37:13;;;;;;;62.05;12.00;;;16.70;91.20;;;;;;5043682;28;20177;-53
2024/01/27 03:39:42;;;;;;;82.55;12.38;;;16.60;91.40;;;;;;5053848;28;20126;-42
2024/01/27 03:42:09;;;;;;;88.35;13.48;;;16.50;92.10;;;;;;5052221;28;20122;-53
2024/01/27 03:44:36;;;;;;;66.70;12.90;;;16.50;92.70;;;;;;5053737;28;20611;-47
2024/01/27 03:47:02;;;;;;;78.38;13.45;;;16.40;92.70;;;;;;5055326;28;20085;-44
2024/01/27 03:49:29;;;;;;;68.55;13.52;;;16.20;92.40;;;;;;5053698;28;20081;-51
2024/01/27 03:51:55;;;;;;;79.70;15.02;;;16.30;92.60;;;;;;5052130;28;20074;-44
2024/01/27 03:54:22;;;;;;;73.22;14.55;;;16.30;93.00;;;;;;5049593;28;20196;-42
2024/01/27 03:56:48;;;;;;;88.88;14.73;;;16.10;93.30;;;;;;5055097;28;20076;-44
2024/01/27 03:59:15;;;;;;;69.32;14.95;;;16.00;94.00;;;;;;5051915;28;20479;-46
2024/01/27 04:01:41;;;;;;;80.10;15.07;;;16.00;94.50;;;;;;5055018;28;20168;-54
2024/01/27 04:04:07;;;;;;;80.32;15.43;;;16.00;95.10;;;;;;5050853;28;20109;-48
2024/01/27 04:06:38;;;;;;;93.63;15.52;;;15.80;95.10;;;;;;5050609;28;20074;-43
2024/01/27 04:09:05;;;;;;;93.68;16.00;;;15.80;94.20;;;;;;5052826;28;20142;-44
2024/01/27 04:11:32;;;;;;;83.40;15.82;;;15.70;94.60;;;;;;5048174;28;20087;-47
2024/01/27 04:13:59;;;;;;;80.30;16.20;;;15.60;95.00;;;;;;5048204;28;20111;-49
2024/01/27 04:16:25;;;;;;;66.30;15.73;;;15.40;94.80;;;;;;5054124;28;20081;-42
2024/01/27 04:18:52;;;;;;;71.32;18.45;;;15.40;94.70;;;;;;5057304;28;20077;-45
2024/01/27 04:21:18;;;;;;;85.88;18.20;;;15.30;94.90;;;;;;5050743;28;20089;-48
2024/01/27 04:23:45;;;;;;;89.90;18.38;;;15.40;95.60;;;;;;5050053;28;20173;-50
2024/01/27 04:26:11;;;;;;;95.88;19.90;;;15.50;96.00;;;;;;5053870;28;20133;-51
2024/01/27 04:28:38;;;;;;;92.50;19.05;;;15.50;95.70;;;;;;5053636;28;20196;-50
2024/01/27 04:31:04;;;;;;;80.15;18.45;;;15.50;95.70;;;;;;5051501;28;20599;-42
2024/01/27 04:33:31;;;;;;;96.80;20.25;;;15.50;96.20;;;;;;5051027;28;20065;-43
2024/01/27 04:35:57;;;;;;;85.50;22.25;;;15.30;97.20;;;;;;5050098;28;20072;-46
2024/01/27 04:38:24;;;;;;;89.40;21.52;;;15.20;97.00;;;;;;5045155;28;20158;-44
2024/01/27 04:40:52;;;;;;;83.93;21.42;;;15.10;97.20;;;;;;5047860;28;20478;-49
2024/01/27 04:43:22;;;;;;;69.07;20.38;;;15.10;97.30;;;;;;5050912;28;20105;-44
2024/01/27 04:45:49;;;;;;;109.18;23.67;;;15.00;97.80;;;;;;5053522;28;20080;-56
2024/01/27 04:48:16;;;;;;;106.97;22.98;;;15.00;98.00;;;;;;5052524;28;20448;-52
2024/01/27 04:50:43;;;;;;;100.93;23.02;;;15.00;98.40;;;;;;5042827;28;21146;-45
2024/01/27 04:53:09;;;;;;;105.25;23.73;;;15.00;98.60;;;;;;5060403;28;20204;-43
2024/01/27 04:55:35;;;;;;;91.55;22.90;;;14.90;99.00;;;;;;5052856;28;20095;-43
2024/01/27 04:58:02;;;;;;;123.78;23.33;;;14.70;99.40;;;;;;5070482;28;20077;-58
2024/01/27 05:00:28;;;;;;;95.90;23.35;;;14.60;99.70;;;;;;5070755;28;20125;-43
2024/01/27 05:02:55;;;;;;;93.53;23.23;;;14.60;99.90;;;;;;5074395;28;20108;-42
2024/01/27 05:05:22;;;;;;;94.78;22.30;;;14.40;99.90;;;;;;5068668;28;20431;-57
2024/01/27 05:07:48;;;;;;;77.97;22.05;;;14.30;99.90;;;;;;5071565;28;20111;-43
2024/01/27 05:10:18;;;;;;;83.80;22.23;;;14.20;99.90;;;;;;5052375;28;20452;-57
2024/01/27 05:12:44;;;;;;;94.78;25.58;;;14.30;99.90;;;;;;5069958;28;20095;-47
2024/01/27 05:15:11;;;;;;;101.47;24.95;;;14.30;99.90;;;;;;5075562;28;20693;-51
2024/01/27 05:17:38;;;;;;;99.43;28.50;;;14.20;99.90;;;;;;5077756;28;20143;-44
2024/01/27 05:20:05;;;;;;;103.65;24.80;;;14.10;99.90;;;;;;5078367;28;20125;-43
2024/01/27 05:22:31;;;;;;;79.50;21.23;;;14.00;99.90;;;;;;5078254;28;20131;-45
2024/01/27 05:24:58;;;;;;;105.32;24.65;;;13.90;99.90;;;;;;5074521;28;20072;-53
2024/01/27 05:27:24;;;;;;;76.25;23.00;;;14.10;99.90;;;;;;5074635;28;20440;-45
2024/01/27 05:29:51;;;;;;;105.70;26.45;;;14.00;99.90;;;;;;5078230;28;20069;-44
2024/01/27 05:32:18;;;;;;;90.82;24.77;;;14.00;99.90;;;;;;5076664;28;20132;-51
2024/01/27 05:34:45;;;;;;;108.57;24.73;;;14.00;99.90;;;;;;5073143;28;20118;-45
2024/01/27 05:37:13;;;;;;;84.55;24.33;;;13.90;99.90;;;;;;5079519;28;20121;-41
2024/01/27 05:39:39;;;;;;;100.10;26.88;;;13.90;99.90;;;;;;5072369;28;20080;-45
2024/01/27 05:42:06;;;;;;;88.65;26.33;;;13.80;99.90;;;;;;5070802;28;20120;-45
2024/01/27 05:44:33;;;;;;;97.72;26.63;;;13.80;99.90;;;;;;5079446;28;20470;-55
2024/01/27 05:46:59;;;;;;;82.10;27.83;;;13.70;99.90;;;;;;5074125;28;20575;-44
2024/01/27 05:49:25;;;;;;;92.30;25.20;;;13.80;99.90;;;;;;5073980;28;20097;-47
2024/01/27 05:51:52;;;;;;;101.30;30.90;;;13.80;99.90;;;;;;5076177;28;20099;-47
2024/01/27 05:54:18;;;;;;;84.45;27.85;;;13.80;99.90;;;;;;5077635;28;20239;-45
2024/01/27 05:56:45;;;;;;;90.90;29.10;;;13.70;99.90;;;;;;5078637;28;20197;-50
2024/01/27 05:59:11;;;;;;;93.72;29.75;;;13.70;99.90;;;;;;5077200;28;20552;-44
2024/01/27 06:01:40;;;;;;;94.03;28.90;;;13.70;99.90;;;;;;5077759;28;20065;-44
2024/01/27 06:04:07;;;;;;;90.13;27.17;;;13.70;99.90;;;;;;5073036;28;20108;-45
2024/01/27 06:06:33;;;;;;;90.38;29.00;;;13.50;99.90;;;;;;5076884;28;20073;-42
2024/01/27 06:09:00;;;;;;;101.93;27.85;;;13.40;99.90;;;;;;5056732;28;20112;-43
2024/01/27 06:11:26;;;;;;;74.82;25.98;;;13.30;99.90;;;;;;5073848;28;20074;-48
2024/01/27 06:13:53;;;;;;;77.07;26.08;;;13.20;99.90;;;;;;5072497;28;20601;-45
2024/01/27 06:16:19;;;;;;;76.22;24.77;;;13.20;99.90;;;;;;5074435;28;20080;-52
2024/01/27 06:18:46;;;;;;;102.07;26.73;;;13.20;99.90;;;;;;5073644;28;20079;-42
2024/01/27 06:21:13;;;;;;;68.18;24.73;;;13.40;99.90;;;;;;5070141;28;20213;-49
2024/01/27 06:23:39;;;;;;;89.97;25.98;;;13.40;99.90;;;;;;5073232;28;20128;-45
2024/01/27 06:26:09;;;;;;;88.50;26.02;;;13.20;99.90;;;;;;5072636;28;20073;-44
2024/01/27 06:28:36;;;;;;;84.97;23.67;;;13.30;99.90;;;;;;5075524;28;20594;-44
2024/01/27 06:31:07;;;;;;;63.25;23.17;;;13.30;99.90;;;;;;5074142;28;20076;-47
2024/01/27 06:33:35;;;;;;;95.00;24.10;;;13.30;99.90;;;;;;5075446;28;20153;-43
2024/01/27 06:36:02;;;;;;;82.32;25.10;;;13.30;99.90;;;;;;5074380;28;20528;-45
2024/01/27 06:38:28;;;;;;;88.47;26.08;;;13.30;99.90;;;;;;5073799;28;20121;-44
2024/01/27 06:40:55;;;;;;;87.05;24.92;;;13.30;99.90;;;;;;5076549;28;20076;-46
2024/01/27 06:43:21;;;;;;;90.78;26.20;;;13.20;99.90;;;;;;5078150;28;20106;-46
2024/01/27 06:45:48;;;;;;;95.57;24.50;;;13.20;99.90;;;;;;5077119;28;20159;-46
2024/01/27 06:48:14;;;;;;;96.50;24.52;;;13.10;99.90;;;;;;5054996;28;20081;-44
2024/01/27 06:50:41;;;;;;;88.47;25.83;;;12.90;99.90;;;;;;5075787;28;20626;-42
2024/01/27 06:53:10;;;;;;;85.20;24.60;;;12.80;99.90;;;;;;5071475;28;20207;-45
2024/01/27 06:55:37;;;;;;;84.40;26.13;;;12.70;99.90;;;;;;5077864;28;20065;-43
2024/01/27 06:58:05;;;;;;;87.70;26.75;;;12.60;99.90;;;;;;5075842;28;20072;-46
2024/01/27 07:00:31;;;;;;;81.72;25.80;;;12.60;99.90;;;;;;5071457;28;20077;-46
2024/01/27 07:02:59;;;;;;;93.28;26.35;;;12.60;99.90;;;;;;5072732;28;20607;-59
2024/01/27 07:05:25;;;;;;;88.43;26.73;;;12.60;99.90;;;;;;5078252;28;20510;-46
2024/01/27 07:07:52;;;;;;;105.70;31.35;;;12.70;99.90;;;;;;5077710;28;21015;-50
2024/01/27 07:10:19;;;;;;;98.50;32.22;;;12.70;99.90;;;;;;5055406;28;20449;-58
2024/01/27 07:12:46;;;;;;;111.55;33.55;;;12.60;99.90;;;;;;5067946;28;20124;-51
2024/01/27 07:15:13;;;;;;;89.85;32.60;;;12.70;99.90;;;;;;5057087;28;20079;-62
2024/01/27 07:17:40;;;;;;;99.18;31.40;;;12.70;99.90;;;;;;5077056;28;20115;-57
2024/01/27 07:20:08;;;;;;;103.13;33.83;;;12.60;99.90;;;;;;5073619;28;20072;-43
2024/01/27 07:22:34;;;;;;;97.93;35.03;;;12.60;99.90;;;;;;5072909;28;20112;-56
2024/01/27 07:25:01;;;;;;;100.45;36.47;;;12.60;99.90;;;;;;5073367;28;20952;-48
2024/01/27 07:27:27;;;;;;;98.25;33.70;;;12.50;99.90;;;;;;5071987;28;20077;-51
2024/01/27 07:29:54;;;;;;;97.57;35.65;;;12.50;99.90;;;;;;5074965;28;20190;-55
2024/01/27 07:32:21;;;;;;;103.93;37.25;;;12.50;99.90;;;;;;5075595;28;20161;-45
2024/01/27 07:34:47;;;;;;;116.53;42.08;;;12.50;99.90;;;;;;5071361;28;20127;-46
2024/01/27 07:37:14;;;;;;;109.38;43.55;;;12.50;99.90;;;;;;5051455;28;20095;-45
2024/01/27 07:39:40;;;;;;;103.55;39.83;;;12.40;99.90;;;;;;5072169;28;20069;-51
2024/01/27 07:42:07;;;;;;;128.45;39.72;;;12.40;99.90;;;;;;5068166;28;20568;-44
2024/01/27 07:44:33;;;;;;;108.28;40.45;;;12.40;99.90;;;;;;5075621;28;20103;-41
2024/01/27 07:47:00;;;;;;;106.18;41.10;;;12.30;99.90;;;;;;5072484;28;20088;-57
2024/01/27 07:49:26;;;;;;;118.28;42.88;;;12.20;99.90;;;;;;5054347;28;20160;-44
2024/01/27 07:51:53;;;;;;;124.63;43.33;;;12.30;99.90;;;;;;5074785;28;20073;-48
2024/01/27 07:54:20;;;;;;;120.35;44.40;;;12.30;99.90;;;;;;5057082;28;20112;-41
2024/01/27 07:56:47;;;;;;;125.50;45.03;;;12.30;99.90;;;;;;5072652;28;20077;-45
2024/01/27 07:59:16;;;;;;;120.68;45.15;;;12.20;99.90;;;;;;5076750;28;20075;-55
2024/01/27 08:01:43;;;;;;;113.03;48.10;;;12.20;99.90;;;;;;5072353;28;20138;-46
2024/01/27 08:04:09;;;;;;;155.13;58.17;;;12.20;99.90;;;;;;5073156;28;20122;-47
2024/01/27 08:06:47;;;;;;;136.70;60.45;;;12.10;99.90;;;;;;5074295;28;20127;-50
2024/01/27 08:09:14;;;;;;;177.65;68.63;;;12.10;99.90;;;;;;5072114;28;20088;-42
2024/01/27 08:11:40;;;;;;;162.57;69.15;;;12.10;99.90;;;;;;5074937;28;20134;-42
2024/01/27 08:14:07;;;;;;;168.88;70.88;;;12.10;99.90;;;;;;5070082;28;20087;-44
2024/01/27 08:16:33;;;;;;;172.75;69.43;;;12.10;99.90;;;;;;5069679;28;20112;-46
2024/01/27 08:19:00;;;;;;;155.88;61.63;;;12.10;99.90;;;;;;5077357;28;20079;-44
2024/01/27 08:21:26;;;;;;;172.10;67.75;;;12.10;99.90;;;;;;5071783;28;20073;-46
2024/01/27 08:23:54;;;;;;;147.95;59.70;;;12.10;99.90;;;;;;5072620;28;20100;-43
2024/01/27 08:26:22;;;;;;;122.57;52.83;;;12.00;99.90;;;;;;5073522;28;20192;-45
2024/01/27 08:28:49;;;;;;;144.25;57.45;;;12.00;99.90;;;;;;5072313;28;20072;-47
2024/01/27 08:31:15;;;;;;;114.85;49.45;;;12.00;99.90;;;;;;5074307;28;20087;-42
2024/01/27 08:33:42;;;;;;;114.78;49.15;;;12.00;99.90;;;;;;5068282;28;20088;-42
2024/01/27 08:36:13;;;;;;;125.68;50.13;;;12.00;99.90;;;;;;5072917;28;20173;-45
2024/01/27 08:38:39;;;;;;;120.85;50.50;;;11.90;99.90;;;;;;5071734;28;20163;-49
2024/01/27 08:41:05;;;;;;;112.15;51.42;;;11.90;99.90;;;;;;5057793;28;20096;-43
2024/01/27 08:43:31;;;;;;;;;;;11.80;99.90;;;;;;5075760;28;20102;-53
2024/01/27 08:46:00;;;;;;;116.18;52.83;;;11.80;99.90;;;;;;5071945;28;20055;-44
2024/01/27 08:48:26;;;;;;;105.80;48.85;;;11.70;99.90;;;;;;5074960;28;20081;-51
2024/01/27 08:50:53;;;;;;;130.32;51.47;;;11.70;99.90;;;;;;5070036;28;20081;-43
2024/01/27 08:53:19;;;;;;;113.10;50.25;;;11.70;99.90;;;;;;5068832;28;20108;-43
2024/01/27 08:55:46;;;;;;;112.07;47.88;;;11.70;99.90;;;;;;5070893;28;20072;-46
2024/01/27 08:58:12;;;;;;;129.02;48.45;;;11.70;99.90;;;;;;5074887;28;20077;-43
2024/01/27 09:00:39;;;;;;;106.30;46.17;;;11.70;99.90;;;;;;5076178;28;20255;-46
2024/01/27 09:03:05;;;;;;;124.85;46.80;;;11.70;99.90;;;;;;5075834;28;20107;-43
2024/01/27 09:05:32;;;;;;;101.38;44.40;;;11.70;99.90;;;;;;5069020;28;20084;-46
2024/01/27 09:07:58;;;;;;;119.43;45.70;;;11.60;99.90;;;;;;5073070;28;20079;-51
2024/01/27 09:10:25;;;;;;;113.40;48.50;;;11.60;99.90;;;;;;5068428;28;20085;-42
2024/01/27 09:12:51;;;;;;;123.07;46.05;;;11.50;99.90;;;;;;5070118;28;20077;-48
2024/01/27 09:15:18;;;;;;;105.63;47.75;;;11.50;99.90;;;;;;5074221;28;20525;-43
2024/01/27 09:17:44;;;;;;;103.55;46.75;;;11.50;99.90;;;;;;5069567;28;20147;-42
2024/01/27 09:20:11;;;;;;;123.43;49.42;;;11.50;99.90;;;;;;5072038;28;20506;-43
2024/01/27 09:22:38;;;;;;;111.93;50.05;;;11.50;99.90;;;;;;5067729;28;20105;-43
2024/01/27 09:25:05;;;;;;;110.25;50.10;;;11.30;99.90;;;;;;5069958;28;20069;-53
2024/01/27 09:27:31;;;;;;;106.28;48.92;;;11.30;99.90;;;;;;5071118;28;20084;-41
2024/01/27 09:29:58;;;;;;;108.45;50.25;;;11.30;99.90;;;;;;5056594;28;20073;-42
2024/01/27 09:32:24;;;;;;;111.82;52.60;;;11.30;99.90;;;;;;5071992;28;20204;-54
2024/01/27 09:34:53;;;;;;;117.05;53.35;;;11.30;99.90;;;;;;5069064;28;20079;-46
2024/01/27 09:37:20;;;;;;;137.68;52.85;;;11.30;99.90;;;;;;5067033;28;20078;-48
2024/01/27 09:39:46;;;;;;;119.43;48.22;;;11.30;99.90;;;;;;5072237;28;20077;-42
2024/01/27 09:42:17;;;;;;;119.43;49.05;;;11.30;99.90;;;;;;5069574;28;20084;-44
2024/01/27 09:44:45;;;;;;;116.18;47.60;;;11.40;99.90;;;;;;5072190;28;20115;-45
2024/01/27 09:47:14;;;;;;;101.65;45.05;;;11.30;99.90;;;;;;5073943;28;20077;-44
2024/01/27 09:49:42;;;;;;;90.97;41.22;;;11.40;99.90;;;;;;5071104;28;20139;-45
2024/01/27 09:52:08;;;;;;;88.20;39.10;;;11.30;99.90;;;;;;5073170;28;20069;-46
2024/01/27 09:54:36;;;;;;;88.75;33.30;;;11.30;99.90;;;;;;5070147;28;20120;-43
2024/01/27 09:57:03;;;;;;;75.72;33.05;;;11.30;99.90;;;;;;5074164;28;20076;-49
2024/01/27 09:59:32;;;;;;;67.82;30.73;;;11.30;99.90;;;;;;5076507;28;20528;-45
2024/01/27 10:02:00;;;;;;;75.38;32.42;;;11.30;99.90;;;;;;5076024;28;20529;-44
2024/01/27 10:04:28;;;;;;;73.57;29.88;;;11.30;99.90;;;;;;5055652;28;20104;-53
2024/01/27 10:06:58;;;;;;;69.05;28.80;;;11.30;99.90;;;;;;5075112;28;20533;-53
2024/01/27 10:09:24;;;;;;;67.97;26.73;;;11.30;99.90;;;;;;5075319;28;21175;-60
2024/01/27 10:11:54;;;;;;;51.85;23.83;;;11.30;99.90;;;;;;5077808;28;20085;-53
2024/01/27 10:14:20;;;;;;;45.22;20.08;;;11.20;99.90;;;;;;5074572;28;20089;-43
2024/01/27 10:16:47;;;;;;;41.75;17.55;;;11.30;99.90;;;;;;5077468;28;20084;-44
2024/01/27 10:19:18;;;;;;;49.13;18.08;;;11.20;99.90;;;;;;5076643;28;20081;-47
2024/01/27 10:21:46;;;;;;;48.85;17.98;;;11.30;99.90;;;;;;5073992;28;20069;-48
2024/01/27 10:24:12;;;;;;;35.50;15.57;;;11.20;99.90;;;;;;5076203;28;20113;-59
2024/01/27 10:26:39;;;;;;;36.00;14.90;;;11.20;99.90;;;;;;5070343;28;20104;-44
2024/01/27 10:29:06;;;;;;;30.63;15.07;;;11.20;99.90;;;;;;5074643;28;20170;-46
2024/01/27 10:31:36;;;;;;;38.10;14.88;;;11.20;99.90;;;;;;5054635;28;20124;-49
2024/01/27 10:34:04;;;;;;;31.35;14.32;;;11.20;99.90;;;;;;5058869;28;20219;-46
2024/01/27 10:36:41;;;;;;;33.38;14.80;;;11.30;99.90;;;;;;5056374;28;20534;-47
2024/01/27 10:39:20;;;;;;;28.58;13.18;;;11.20;99.90;;;;;;5072686;28;20085;-44
2024/01/27 10:41:48;;;;;;;31.88;12.80;;;11.20;99.90;;;;;;5071906;28;22048;-48
2024/01/27 10:44:16;;;;;;;29.05;14.23;;;11.10;99.90;;;;;;5070816;28;20501;-47
2024/01/27 10:46:46;;;;;;;34.25;15.63;;;11.10;99.90;;;;;;5074746;28;20082;-49
2024/01/27 10:49:16;;;;;;;37.72;13.60;;;11.10;99.90;;;;;;5075403;28;20077;-45
2024/01/27 10:51:54;;;;;;;27.85;12.15;;;11.10;99.90;;;;;;5071257;28;20077;-43
2024/01/27 10:54:28;;;;;;;20.55;10.88;;;11.10;99.90;;;;;;5074021;28;20112;-51
2024/01/27 10:56:57;;;;;;;23.35;10.35;;;11.00;99.90;;;;;;5074129;28;20117;-54
2024/01/27 10:59:26;;;;;;;24.27;10.63;;;11.00;99.90;;;;;;5070155;28;20092;-43
2024/01/27 11:01:54;;;;;;;22.55;9.10;;;11.00;99.90;;;;;;5071883;28;20151;-43
2024/01/27 11:04:21;;;;;;;16.23;8.07;;;11.00;99.90;;;;;;5058344;28;20687;-42
2024/01/27 11:06:51;;;;;;;15.43;7.93;;;10.90;99.90;;;;;;5053894;28;20444;-61
2024/01/27 11:09:21;;;;;;;14.23;8.43;;;10.90;99.90;;;;;;5071063;28;20065;-51
2024/01/27 11:11:48;;;;;;;23.80;10.13;;;10.90;99.90;;;;;;5073530;28;20149;-49
2024/01/27 11:14:15;;;;;;;18.75;10.75;;;10.90;99.90;;;;;;5076395;28;20085;-46
2024/01/27 11:16:47;;;;;;;20.83;11.20;;;11.00;99.90;;;;;;5073206;28;20088;-50
2024/01/27 11:19:17;;;;;;;18.42;12.10;;;10.90;99.90;;;;;;5073753;28;20104;-53
2024/01/27 11:21:44;;;;;;;19.83;11.80;;;10.90;99.90;;;;;;5074815;28;20077;-50
2024/01/27 11:24:15;;;;;;;32.65;10.15;;;10.80;99.90;;;;;;5074385;28;20105;-43
2024/01/27 11:26:42;;;;;;;23.20;8.90;;;10.80;99.90;;;;;;5072175;28;20085;-43
2024/01/27 11:29:31;;;;;;;27.30;9.02;;;10.80;99.90;;;;;;5055102;28;20099;-43
2024/01/27 11:31:58;;;;;;;15.15;9.77;;;10.80;99.90;;;;;;5073586;28;20107;-44
2024/01/27 11:34:25;;;;;;;18.95;9.15;;;10.80;99.90;;;;;;5068916;28;21075;-56
2024/01/27 11:36:51;;;;;;;20.77;8.82;;;10.90;99.90;;;;;;5075926;28;20107;-43
2024/01/27 11:39:29;;;;;;;20.55;8.80;;;10.80;99.90;;;;;;5072107;28;20160;-48
2024/01/27 11:42:09;;;;;;;23.80;8.40;;;10.80;99.90;;;;;;5072981;28;20159;-43
2024/01/27 11:44:39;;;;;;;12.05;7.57;;;10.80;99.90;;;;;;5073938;28;20104;-45
2024/01/27 11:47:13;;;;;;;22.48;8.35;;;10.80;99.90;;;;;;5072079;28;20525;-51
2024/01/27 11:49:42;;;;;;;15.27;7.65;;;10.80;99.90;;;;;;5072563;28;20072;-41
2024/01/27 11:52:08;;;;;;;16.75;7.03;;;10.70;99.90;;;;;;5075351;28;20075;-52
2024/01/27 11:54:36;;;;;;;17.77;7.97;;;10.60;99.90;;;;;;5070710;28;20144;-44
2024/01/27 11:57:02;;;;;;;13.43;7.97;;;10.60;99.90;;;;;;5071550;28;20156;-49
2024/01/27 11:59:29;;;;;;;19.02;9.98;;;10.60;99.90;;;;;;5073389;28;20073;-60
2024/01/27 12:01:56;;;;;;;18.02;11.85;;;10.60;99.90;;;;;;5071332;28;20096;-51
2024/01/27 12:04:24;;;;;;;17.20;11.57;;;10.60;99.90;;;;;;5077416;28;20103;-47
2024/01/27 12:06:50;;;;;;;22.45;13.27;;;10.50;99.90;;;;;;5072731;28;20666;-48
2024/01/27 12:09:18;;;;;;;29.02;15.30;;;10.50;99.90;;;;;;5074327;28;20078;-50
2024/01/27 12:11:45;;;;;;;27.08;16.00;;;10.50;99.90;;;;;;5072681;28;20069;-47
2024/01/27 12:14:13;;;;;;;34.08;15.25;;;10.60;99.90;;;;;;5069999;28;20196;-49
2024/01/27 12:16:41;;;;;;;28.67;17.95;;;10.60;99.90;;;;;;5072640;28;20113;-44
2024/01/27 12:19:11;;;;;;;32.05;18.13;;;10.50;99.90;;;;;;5071279;28;20490;-47
2024/01/27 12:21:38;;;;;;;33.53;20.58;;;10.40;99.90;;;;;;5071097;28;20071;-47
2024/01/27 12:24:05;;;;;;;35.03;21.35;;;10.50;99.90;;;;;;5070639;28;20458;-44
2024/01/27 12:26:32;;;;;;;43.42;21.38;;;10.40;99.90;;;;;;5070380;28;20210;-44
2024/01/27 12:28:59;;;;;;;29.75;15.13;;;10.40;99.90;;;;;;5070028;28;20083;-53